sensor_id;sensor_type;location;lat;lon;timestamp;P1;durP1;ratioP1;P2;durP2;ratioP2
11671;SDS011;5892;43.412;24.612;2024-03-08T00:00:34;26.65;;;14.43;;
11671;SDS011;5892;43.412;24.612;2024-03-08T00:03:00;29.58;;;12.85;;
11671;SDS011;5892;43.412;24.612;2024-03-08T00:05:28;27.15;;;14.10;;
11671;SDS011;5892;43.412;24.612;2024-03-08T00:07:53;28.63;;;13.93;;
11671;SDS011;5892;43.412;24.612;2024-03-08T00:10:19;24.60;;;11.90;;
11671;SDS011;5892;43.412;24.612;2024-03-08T00:12:46;25.83;;;10.80;;
11671;SDS011;5892;43.412;24.612;2024-03-08T00:15:12;25.98;;;12.13;;
11671;SDS011;5892;43.412;24.612;2024-03-08T00:17:41;21.73;;;11.13;;
11671;SDS011;5892;43.412;24.612;2024-03-08T00:20:07;23.98;;;12.68;;
11671;SDS011;5892;43.412;24.612;2024-03-08T00:22:36;25.15;;;10.85;;
11671;SDS011;5892;43.412;24.612;2024-03-08T00:25:03;25.60;;;12.60;;
11671;SDS011;5892;43.412;24.612;2024-03-08T00:27:35;27.48;;;11.10;;
11671;SDS011;5892;43.412;24.612;2024-03-08T00:30:00;28.92;;;11.80;;
11671;SDS011;5892;43.412;24.612;2024-03-08T00:32:26;26.77;;;11.90;;
11671;SDS011;5892;43.412;24.612;2024-03-08T00:34:53;21.55;;;10.48;;
11671;SDS011;5892;43.412;24.612;2024-03-08T00:37:20;23.52;;;11.43;;
11671;SDS011;5892;43.412;24.612;2024-03-08T00:39:51;26.83;;;11.88;;
11671;SDS011;5892;43.412;24.612;2024-03-08T00:42:17;21.45;;;11.05;;
11671;SDS011;5892;43.412;24.612;2024-03-08T00:44:43;21.92;;;10.15;;
11671;SDS011;5892;43.412;24.612;2024-03-08T00:47:13;22.52;;;9.95;;
11671;SDS011;5892;43.412;24.612;2024-03-08T00:49:41;24.75;;;11.07;;
11671;SDS011;5892;43.412;24.612;2024-03-08T00:52:06;25.40;;;13.30;;
11671;SDS011;5892;43.412;24.612;2024-03-08T00:54:33;26.42;;;11.85;;
11671;SDS011;5892;43.412;24.612;2024-03-08T00:57:05;28.35;;;11.70;;
11671;SDS011;5892;43.412;24.612;2024-03-08T00:59:31;29.08;;;14.15;;
11671;SDS011;5892;43.412;24.612;2024-03-08T01:02:02;26.65;;;11.23;;
11671;SDS011;5892;43.412;24.612;2024-03-08T01:04:29;31.23;;;14.18;;
11671;SDS011;5892;43.412;24.612;2024-03-08T01:06:58;29.13;;;11.65;;
11671;SDS011;5892;43.412;24.612;2024-03-08T01:09:24;27.33;;;14.02;;
11671;SDS011;5892;43.412;24.612;2024-03-08T01:11:50;29.05;;;11.35;;
11671;SDS011;5892;43.412;24.612;2024-03-08T01:14:15;24.17;;;11.18;;
11671;SDS011;5892;43.412;24.612;2024-03-08T01:16:41;27.92;;;13.35;;
11671;SDS011;5892;43.412;24.612;2024-03-08T01:19:07;31.63;;;13.05;;
11671;SDS011;5892;43.412;24.612;2024-03-08T01:21:33;26.90;;;12.90;;
11671;SDS011;5892;43.412;24.612;2024-03-08T01:23:59;25.27;;;11.88;;
11671;SDS011;5892;43.412;24.612;2024-03-08T01:26:25;27.17;;;11.43;;
11671;SDS011;5892;43.412;24.612;2024-03-08T01:28:51;28.77;;;11.45;;
11671;SDS011;5892;43.412;24.612;2024-03-08T01:31:16;27.55;;;12.48;;
11671;SDS011;5892;43.412;24.612;2024-03-08T01:33:42;32.25;;;12.55;;
11671;SDS011;5892;43.412;24.612;2024-03-08T01:36:07;33.92;;;13.90;;
11671;SDS011;5892;43.412;24.612;2024-03-08T01:38:33;28.92;;;12.93;;
11671;SDS011;5892;43.412;24.612;2024-03-08T01:40:58;27.13;;;12.52;;
11671;SDS011;5892;43.412;24.612;2024-03-08T01:43:27;38.67;;;14.07;;
11671;SDS011;5892;43.412;24.612;2024-03-08T01:45:54;30.77;;;13.52;;
11671;SDS011;5892;43.412;24.612;2024-03-08T01:48:23;27.63;;;13.13;;
11671;SDS011;5892;43.412;24.612;2024-03-08T01:50:49;32.33;;;14.23;;
11671;SDS011;5892;43.412;24.612;2024-03-08T01:53:15;27.17;;;11.20;;
11671;SDS011;5892;43.412;24.612;2024-03-08T01:55:46;29.70;;;12.48;;
11671;SDS011;5892;43.412;24.612;2024-03-08T01:58:13;28.70;;;12.25;;
11671;SDS011;5892;43.412;24.612;2024-03-08T02:00:44;23.13;;;10.80;;
11671;SDS011;5892;43.412;24.612;2024-03-08T02:03:14;28.02;;;13.80;;
11671;SDS011;5892;43.412;24.612;2024-03-08T02:05:45;31.33;;;13.77;;
11671;SDS011;5892;43.412;24.612;2024-03-08T02:08:10;33.85;;;13.32;;
11671;SDS011;5892;43.412;24.612;2024-03-08T02:10:43;30.80;;;13.95;;
11671;SDS011;5892;43.412;24.612;2024-03-08T02:13:26;31.05;;;12.13;;
11671;SDS011;5892;43.412;24.612;2024-03-08T02:15:53;28.80;;;12.48;;
11671;SDS011;5892;43.412;24.612;2024-03-08T02:18:20;28.10;;;12.68;;
11671;SDS011;5892;43.412;24.612;2024-03-08T02:20:50;30.67;;;13.25;;
11671;SDS011;5892;43.412;24.612;2024-03-08T02:23:17;31.85;;;13.23;;
11671;SDS011;5892;43.412;24.612;2024-03-08T02:25:46;29.65;;;14.32;;
11671;SDS011;5892;43.412;24.612;2024-03-08T02:28:12;35.28;;;12.95;;
11671;SDS011;5892;43.412;24.612;2024-03-08T02:30:38;31.85;;;14.23;;
11671;SDS011;5892;43.412;24.612;2024-03-08T02:33:04;30.05;;;12.95;;
11671;SDS011;5892;43.412;24.612;2024-03-08T02:35:30;33.45;;;13.27;;
11671;SDS011;5892;43.412;24.612;2024-03-08T02:37:56;34.92;;;13.82;;
11671;SDS011;5892;43.412;24.612;2024-03-08T02:40:22;32.30;;;13.25;;
11671;SDS011;5892;43.412;24.612;2024-03-08T02:42:47;28.75;;;12.57;;
11671;SDS011;5892;43.412;24.612;2024-03-08T02:45:13;32.60;;;14.02;;
11671;SDS011;5892;43.412;24.612;2024-03-08T02:47:38;33.88;;;14.85;;
11671;SDS011;5892;43.412;24.612;2024-03-08T02:50:05;35.65;;;14.13;;
11671;SDS011;5892;43.412;24.612;2024-03-08T02:52:33;32.40;;;13.07;;
11671;SDS011;5892;43.412;24.612;2024-03-08T02:54:59;29.23;;;13.27;;
11671;SDS011;5892;43.412;24.612;2024-03-08T02:57:24;32.58;;;14.13;;
11671;SDS011;5892;43.412;24.612;2024-03-08T02:59:50;27.85;;;11.98;;
11671;SDS011;5892;43.412;24.612;2024-03-08T03:02:16;35.53;;;13.98;;
11671;SDS011;5892;43.412;24.612;2024-03-08T03:04:41;33.67;;;14.57;;
11671;SDS011;5892;43.412;24.612;2024-03-08T03:07:08;30.92;;;13.52;;
11671;SDS011;5892;43.412;24.612;2024-03-08T03:09:34;30.73;;;12.70;;
11671;SDS011;5892;43.412;24.612;2024-03-08T03:12:00;31.55;;;13.60;;
11671;SDS011;5892;43.412;24.612;2024-03-08T03:14:25;30.63;;;14.93;;
11671;SDS011;5892;43.412;24.612;2024-03-08T03:16:54;34.03;;;13.98;;
11671;SDS011;5892;43.412;24.612;2024-03-08T03:19:20;31.35;;;13.20;;
11671;SDS011;5892;43.412;24.612;2024-03-08T03:21:46;30.02;;;12.63;;
11671;SDS011;5892;43.412;24.612;2024-03-08T03:24:12;30.45;;;14.20;;
11671;SDS011;5892;43.412;24.612;2024-03-08T03:26:41;32.55;;;15.20;;
11671;SDS011;5892;43.412;24.612;2024-03-08T03:29:08;30.10;;;14.95;;
11671;SDS011;5892;43.412;24.612;2024-03-08T03:31:35;30.33;;;13.30;;
11671;SDS011;5892;43.412;24.612;2024-03-08T03:34:01;31.90;;;13.45;;
11671;SDS011;5892;43.412;24.612;2024-03-08T03:36:31;27.95;;;13.07;;
11671;SDS011;5892;43.412;24.612;2024-03-08T03:38:57;32.33;;;12.80;;
11671;SDS011;5892;43.412;24.612;2024-03-08T03:41:51;26.45;;;12.18;;
11671;SDS011;5892;43.412;24.612;2024-03-08T03:44:17;28.90;;;12.57;;
11671;SDS011;5892;43.412;24.612;2024-03-08T03:46:43;30.45;;;14.00;;
11671;SDS011;5892;43.412;24.612;2024-03-08T03:49:11;36.10;;;15.48;;
11671;SDS011;5892;43.412;24.612;2024-03-08T03:51:38;27.80;;;12.77;;
11671;SDS011;5892;43.412;24.612;2024-03-08T03:54:04;29.20;;;13.27;;
11671;SDS011;5892;43.412;24.612;2024-03-08T03:56:29;30.73;;;14.75;;
11671;SDS011;5892;43.412;24.612;2024-03-08T03:58:55;30.50;;;14.02;;
11671;SDS011;5892;43.412;24.612;2024-03-08T04:01:21;28.60;;;13.48;;
11671;SDS011;5892;43.412;24.612;2024-03-08T04:03:47;26.67;;;10.98;;
11671;SDS011;5892;43.412;24.612;2024-03-08T04:06:13;28.10;;;13.55;;
11671;SDS011;5892;43.412;24.612;2024-03-08T04:08:39;33.80;;;12.80;;
11671;SDS011;5892;43.412;24.612;2024-03-08T04:11:05;30.13;;;14.20;;
11671;SDS011;5892;43.412;24.612;2024-03-08T04:13:30;26.27;;;12.45;;
11671;SDS011;5892;43.412;24.612;2024-03-08T04:15:56;29.88;;;13.95;;
11671;SDS011;5892;43.412;24.612;2024-03-08T04:18:21;30.67;;;14.15;;
11671;SDS011;5892;43.412;24.612;2024-03-08T04:20:47;30.98;;;13.48;;
11671;SDS011;5892;43.412;24.612;2024-03-08T04:23:12;34.30;;;13.55;;
11671;SDS011;5892;43.412;24.612;2024-03-08T04:25:38;34.45;;;16.42;;
11671;SDS011;5892;43.412;24.612;2024-03-08T04:28:03;37.17;;;15.23;;
11671;SDS011;5892;43.412;24.612;2024-03-08T04:30:30;30.55;;;11.63;;
11671;SDS011;5892;43.412;24.612;2024-03-08T04:32:55;30.35;;;12.70;;
11671;SDS011;5892;43.412;24.612;2024-03-08T04:35:21;28.42;;;12.80;;
11671;SDS011;5892;43.412;24.612;2024-03-08T04:37:46;33.03;;;14.63;;
11671;SDS011;5892;43.412;24.612;2024-03-08T04:40:12;33.00;;;14.38;;
11671;SDS011;5892;43.412;24.612;2024-03-08T04:42:38;40.00;;;15.20;;
11671;SDS011;5892;43.412;24.612;2024-03-08T04:45:05;31.60;;;13.05;;
11671;SDS011;5892;43.412;24.612;2024-03-08T04:47:33;34.35;;;14.57;;
11671;SDS011;5892;43.412;24.612;2024-03-08T04:50:02;28.67;;;13.20;;
11671;SDS011;5892;43.412;24.612;2024-03-08T04:52:27;33.50;;;13.63;;
11671;SDS011;5892;43.412;24.612;2024-03-08T04:54:53;31.25;;;13.88;;
11671;SDS011;5892;43.412;24.612;2024-03-08T04:57:19;30.98;;;14.02;;
11671;SDS011;5892;43.412;24.612;2024-03-08T04:59:44;28.40;;;12.43;;
11671;SDS011;5892;43.412;24.612;2024-03-08T05:02:09;32.88;;;13.07;;
11671;SDS011;5892;43.412;24.612;2024-03-08T05:04:36;33.22;;;14.60;;
11671;SDS011;5892;43.412;24.612;2024-03-08T05:07:02;33.83;;;13.30;;
11671;SDS011;5892;43.412;24.612;2024-03-08T05:09:27;33.83;;;12.95;;
11671;SDS011;5892;43.412;24.612;2024-03-08T05:11:54;32.25;;;14.95;;
11671;SDS011;5892;43.412;24.612;2024-03-08T05:14:19;34.78;;;12.35;;
11671;SDS011;5892;43.412;24.612;2024-03-08T05:16:48;30.27;;;13.35;;
11671;SDS011;5892;43.412;24.612;2024-03-08T05:19:14;36.38;;;13.80;;
11671;SDS011;5892;43.412;24.612;2024-03-08T05:21:46;38.70;;;14.07;;
11671;SDS011;5892;43.412;24.612;2024-03-08T05:24:29;34.47;;;13.43;;
11671;SDS011;5892;43.412;24.612;2024-03-08T05:27:00;36.65;;;14.43;;
11671;SDS011;5892;43.412;24.612;2024-03-08T05:29:26;33.28;;;13.82;;
11671;SDS011;5892;43.412;24.612;2024-03-08T05:31:51;35.55;;;14.57;;
11671;SDS011;5892;43.412;24.612;2024-03-08T05:34:18;31.00;;;15.02;;
11671;SDS011;5892;43.412;24.612;2024-03-08T05:36:45;30.85;;;14.07;;
11671;SDS011;5892;43.412;24.612;2024-03-08T05:39:14;39.15;;;16.48;;
11671;SDS011;5892;43.412;24.612;2024-03-08T05:41:39;33.08;;;15.65;;
11671;SDS011;5892;43.412;24.612;2024-03-08T05:44:05;40.70;;;17.08;;
11671;SDS011;5892;43.412;24.612;2024-03-08T05:46:31;37.42;;;15.68;;
11671;SDS011;5892;43.412;24.612;2024-03-08T05:48:57;35.00;;;15.57;;
11671;SDS011;5892;43.412;24.612;2024-03-08T05:51:24;37.85;;;17.02;;
11671;SDS011;5892;43.412;24.612;2024-03-08T05:53:52;35.22;;;16.13;;
11671;SDS011;5892;43.412;24.612;2024-03-08T05:56:18;35.22;;;16.23;;
11671;SDS011;5892;43.412;24.612;2024-03-08T05:58:44;40.25;;;17.00;;
11671;SDS011;5892;43.412;24.612;2024-03-08T06:01:10;34.63;;;15.80;;
11671;SDS011;5892;43.412;24.612;2024-03-08T06:03:37;36.63;;;17.05;;
11671;SDS011;5892;43.412;24.612;2024-03-08T06:06:10;41.20;;;16.48;;
11671;SDS011;5892;43.412;24.612;2024-03-08T06:08:38;40.03;;;18.35;;
11671;SDS011;5892;43.412;24.612;2024-03-08T06:11:04;37.15;;;15.05;;
11671;SDS011;5892;43.412;24.612;2024-03-08T06:13:31;37.20;;;16.75;;
11671;SDS011;5892;43.412;24.612;2024-03-08T06:15:57;38.67;;;15.35;;
11671;SDS011;5892;43.412;24.612;2024-03-08T06:18:22;38.58;;;17.08;;
11671;SDS011;5892;43.412;24.612;2024-03-08T06:20:47;35.72;;;17.58;;
11671;SDS011;5892;43.412;24.612;2024-03-08T06:23:13;37.33;;;14.75;;
11671;SDS011;5892;43.412;24.612;2024-03-08T06:25:43;34.53;;;13.45;;
11671;SDS011;5892;43.412;24.612;2024-03-08T06:28:09;39.45;;;17.00;;
11671;SDS011;5892;43.412;24.612;2024-03-08T06:30:34;38.80;;;17.42;;
11671;SDS011;5892;43.412;24.612;2024-03-08T06:33:00;31.85;;;16.63;;
11671;SDS011;5892;43.412;24.612;2024-03-08T06:35:25;33.33;;;16.00;;
11671;SDS011;5892;43.412;24.612;2024-03-08T06:37:51;40.15;;;16.95;;
11671;SDS011;5892;43.412;24.612;2024-03-08T06:40:16;36.80;;;16.60;;
11671;SDS011;5892;43.412;24.612;2024-03-08T06:42:42;38.33;;;15.50;;
11671;SDS011;5892;43.412;24.612;2024-03-08T06:45:08;36.90;;;18.42;;
11671;SDS011;5892;43.412;24.612;2024-03-08T06:47:35;36.33;;;16.48;;
11671;SDS011;5892;43.412;24.612;2024-03-08T06:50:01;42.45;;;17.63;;
11671;SDS011;5892;43.412;24.612;2024-03-08T06:52:26;36.50;;;17.17;;
11671;SDS011;5892;43.412;24.612;2024-03-08T06:54:52;38.33;;;16.30;;
11671;SDS011;5892;43.412;24.612;2024-03-08T06:57:17;38.58;;;17.50;;
11671;SDS011;5892;43.412;24.612;2024-03-08T06:59:45;38.85;;;16.67;;
11671;SDS011;5892;43.412;24.612;2024-03-08T07:02:11;40.35;;;15.48;;
11671;SDS011;5892;43.412;24.612;2024-03-08T07:04:36;42.72;;;18.15;;
11671;SDS011;5892;43.412;24.612;2024-03-08T07:07:06;42.63;;;19.02;;
11671;SDS011;5892;43.412;24.612;2024-03-08T07:09:37;46.75;;;19.63;;
11671;SDS011;5892;43.412;24.612;2024-03-08T07:12:03;39.67;;;16.85;;
11671;SDS011;5892;43.412;24.612;2024-03-08T07:14:29;48.40;;;20.20;;
11671;SDS011;5892;43.412;24.612;2024-03-08T07:16:56;42.45;;;18.17;;
11671;SDS011;5892;43.412;24.612;2024-03-08T07:19:21;40.92;;;18.42;;
11671;SDS011;5892;43.412;24.612;2024-03-08T07:21:47;42.58;;;19.17;;
11671;SDS011;5892;43.412;24.612;2024-03-08T07:24:12;40.33;;;16.90;;
11671;SDS011;5892;43.412;24.612;2024-03-08T07:26:38;46.10;;;17.45;;
11671;SDS011;5892;43.412;24.612;2024-03-08T07:29:04;48.78;;;20.27;;
11671;SDS011;5892;43.412;24.612;2024-03-08T07:31:29;42.22;;;17.63;;
11671;SDS011;5892;43.412;24.612;2024-03-08T07:34:07;50.20;;;21.02;;
11671;SDS011;5892;43.412;24.612;2024-03-08T07:36:33;46.22;;;19.55;;
11671;SDS011;5892;43.412;24.612;2024-03-08T07:39:00;46.97;;;18.30;;
11671;SDS011;5892;43.412;24.612;2024-03-08T07:41:26;42.28;;;18.13;;
11671;SDS011;5892;43.412;24.612;2024-03-08T07:43:51;44.05;;;19.75;;
11671;SDS011;5892;43.412;24.612;2024-03-08T07:46:17;45.70;;;21.15;;
11671;SDS011;5892;43.412;24.612;2024-03-08T07:48:43;43.72;;;18.17;;
11671;SDS011;5892;43.412;24.612;2024-03-08T07:51:10;43.13;;;17.90;;
11671;SDS011;5892;43.412;24.612;2024-03-08T07:53:37;48.25;;;20.35;;
11671;SDS011;5892;43.412;24.612;2024-03-08T07:56:03;47.25;;;21.80;;
11671;SDS011;5892;43.412;24.612;2024-03-08T07:58:32;41.85;;;18.55;;
11671;SDS011;5892;43.412;24.612;2024-03-08T08:00:57;42.55;;;17.83;;
11671;SDS011;5892;43.412;24.612;2024-03-08T08:03:23;33.20;;;14.07;;
11671;SDS011;5892;43.412;24.612;2024-03-08T08:05:49;40.70;;;15.70;;
11671;SDS011;5892;43.412;24.612;2024-03-08T08:08:16;44.78;;;18.42;;
11671;SDS011;5892;43.412;24.612;2024-03-08T08:10:42;44.50;;;16.98;;
11671;SDS011;5892;43.412;24.612;2024-03-08T08:13:08;42.00;;;19.10;;
11671;SDS011;5892;43.412;24.612;2024-03-08T08:15:33;43.13;;;17.48;;
11671;SDS011;5892;43.412;24.612;2024-03-08T08:17:59;43.30;;;18.23;;
11671;SDS011;5892;43.412;24.612;2024-03-08T08:20:25;39.45;;;17.27;;
11671;SDS011;5892;43.412;24.612;2024-03-08T08:22:53;37.60;;;17.23;;
11671;SDS011;5892;43.412;24.612;2024-03-08T08:25:20;46.90;;;19.35;;
11671;SDS011;5892;43.412;24.612;2024-03-08T08:27:48;39.60;;;16.70;;
11671;SDS011;5892;43.412;24.612;2024-03-08T08:30:13;44.30;;;17.02;;
11671;SDS011;5892;43.412;24.612;2024-03-08T08:32:39;34.42;;;15.35;;
11671;SDS011;5892;43.412;24.612;2024-03-08T08:35:05;46.97;;;18.25;;
11671;SDS011;5892;43.412;24.612;2024-03-08T08:37:33;46.20;;;18.85;;
11671;SDS011;5892;43.412;24.612;2024-03-08T08:40:02;46.97;;;18.67;;
11671;SDS011;5892;43.412;24.612;2024-03-08T08:42:34;41.63;;;17.50;;
11671;SDS011;5892;43.412;24.612;2024-03-08T08:45:00;42.53;;;17.50;;
11671;SDS011;5892;43.412;24.612;2024-03-08T08:47:33;38.03;;;16.25;;
11671;SDS011;5892;43.412;24.612;2024-03-08T08:49:58;44.17;;;17.08;;
11671;SDS011;5892;43.412;24.612;2024-03-08T08:52:26;41.65;;;18.55;;
11671;SDS011;5892;43.412;24.612;2024-03-08T08:54:51;43.28;;;17.17;;
11671;SDS011;5892;43.412;24.612;2024-03-08T08:57:16;58.38;;;23.40;;
11671;SDS011;5892;43.412;24.612;2024-03-08T08:59:42;51.60;;;19.13;;
11671;SDS011;5892;43.412;24.612;2024-03-08T09:02:08;44.88;;;19.70;;
11671;SDS011;5892;43.412;24.612;2024-03-08T09:04:37;44.25;;;17.70;;
11671;SDS011;5892;43.412;24.612;2024-03-08T09:07:03;52.47;;;21.55;;
11671;SDS011;5892;43.412;24.612;2024-03-08T09:09:32;45.53;;;19.30;;
11671;SDS011;5892;43.412;24.612;2024-03-08T09:11:58;51.88;;;20.95;;
11671;SDS011;5892;43.412;24.612;2024-03-08T09:14:23;45.53;;;20.02;;
11671;SDS011;5892;43.412;24.612;2024-03-08T09:16:51;36.13;;;16.52;;
11671;SDS011;5892;43.412;24.612;2024-03-08T09:19:16;43.10;;;18.70;;
11671;SDS011;5892;43.412;24.612;2024-03-08T09:21:44;44.70;;;17.95;;
11671;SDS011;5892;43.412;24.612;2024-03-08T09:24:10;45.13;;;18.50;;
11671;SDS011;5892;43.412;24.612;2024-03-08T09:26:35;42.13;;;18.55;;
11671;SDS011;5892;43.412;24.612;2024-03-08T09:29:02;40.63;;;18.63;;
11671;SDS011;5892;43.412;24.612;2024-03-08T09:31:27;43.72;;;19.50;;
11671;SDS011;5892;43.412;24.612;2024-03-08T09:33:53;40.13;;;18.23;;
11671;SDS011;5892;43.412;24.612;2024-03-08T09:36:19;43.75;;;18.02;;
11671;SDS011;5892;43.412;24.612;2024-03-08T09:38:45;41.25;;;17.20;;
11671;SDS011;5892;43.412;24.612;2024-03-08T09:41:12;39.85;;;16.23;;
11671;SDS011;5892;43.412;24.612;2024-03-08T09:43:38;39.85;;;15.55;;
11671;SDS011;5892;43.412;24.612;2024-03-08T09:46:04;35.97;;;16.63;;
11671;SDS011;5892;43.412;24.612;2024-03-08T09:48:31;50.00;;;20.50;;
11671;SDS011;5892;43.412;24.612;2024-03-08T09:50:57;41.17;;;18.92;;
11671;SDS011;5892;43.412;24.612;2024-03-08T09:53:23;53.63;;;20.73;;
11671;SDS011;5892;43.412;24.612;2024-03-08T09:55:49;44.90;;;20.40;;
11671;SDS011;5892;43.412;24.612;2024-03-08T09:58:15;47.75;;;19.67;;
11671;SDS011;5892;43.412;24.612;2024-03-08T10:00:46;44.33;;;15.60;;
11671;SDS011;5892;43.412;24.612;2024-03-08T10:03:12;42.20;;;17.73;;
11671;SDS011;5892;43.412;24.612;2024-03-08T10:05:40;39.80;;;15.32;;
11671;SDS011;5892;43.412;24.612;2024-03-08T10:08:06;44.10;;;17.90;;
11671;SDS011;5892;43.412;24.612;2024-03-08T10:10:34;47.63;;;21.02;;
11671;SDS011;5892;43.412;24.612;2024-03-08T10:13:00;39.15;;;18.88;;
11671;SDS011;5892;43.412;24.612;2024-03-08T10:15:27;44.15;;;17.33;;
11671;SDS011;5892;43.412;24.612;2024-03-08T10:17:58;39.30;;;16.45;;
11671;SDS011;5892;43.412;24.612;2024-03-08T10:20:23;44.88;;;18.42;;
11671;SDS011;5892;43.412;24.612;2024-03-08T10:22:49;34.65;;;14.32;;
11671;SDS011;5892;43.412;24.612;2024-03-08T10:25:16;39.28;;;15.02;;
11671;SDS011;5892;43.412;24.612;2024-03-08T10:27:42;43.42;;;18.13;;
11671;SDS011;5892;43.412;24.612;2024-03-08T10:30:14;38.42;;;15.20;;
11671;SDS011;5892;43.412;24.612;2024-03-08T10:32:44;43.50;;;18.85;;
11671;SDS011;5892;43.412;24.612;2024-03-08T10:35:09;37.67;;;15.60;;
11671;SDS011;5892;43.412;24.612;2024-03-08T10:37:42;40.55;;;16.05;;
11671;SDS011;5892;43.412;24.612;2024-03-08T10:40:15;48.60;;;18.08;;
11671;SDS011;5892;43.412;24.612;2024-03-08T10:42:53;37.70;;;17.67;;
11671;SDS011;5892;43.412;24.612;2024-03-08T10:51:03;41.03;;;17.27;;
11671;SDS011;5892;43.412;24.612;2024-03-08T10:53:30;52.35;;;18.67;;
11671;SDS011;5892;43.412;24.612;2024-03-08T10:55:56;44.67;;;18.80;;
11671;SDS011;5892;43.412;24.612;2024-03-08T10:58:23;40.90;;;19.45;;
11671;SDS011;5892;43.412;24.612;2024-03-08T11:00:57;43.15;;;19.83;;
11671;SDS011;5892;43.412;24.612;2024-03-08T11:14:42;46.33;;;18.38;;
11671;SDS011;5892;43.412;24.612;2024-03-08T11:17:12;40.85;;;17.58;;
11671;SDS011;5892;43.412;24.612;2024-03-08T11:19:38;56.08;;;19.38;;
11671;SDS011;5892;43.412;24.612;2024-03-08T11:22:20;40.60;;;15.88;;
11671;SDS011;5892;43.412;24.612;2024-03-08T11:28:06;40.35;;;15.18;;
11671;SDS011;5892;43.412;24.612;2024-03-08T11:30:42;43.50;;;19.60;;
11671;SDS011;5892;43.412;24.612;2024-03-08T11:33:12;45.35;;;18.05;;
11671;SDS011;5892;43.412;24.612;2024-03-08T11:35:38;43.47;;;17.40;;
11671;SDS011;5892;43.412;24.612;2024-03-08T11:38:05;42.50;;;16.52;;
11671;SDS011;5892;43.412;24.612;2024-03-08T11:40:33;42.20;;;18.40;;
11671;SDS011;5892;43.412;24.612;2024-03-08T11:42:59;40.25;;;16.80;;
11671;SDS011;5892;43.412;24.612;2024-03-08T11:45:28;37.25;;;17.50;;
11671;SDS011;5892;43.412;24.612;2024-03-08T11:47:54;42.75;;;15.18;;
11671;SDS011;5892;43.412;24.612;2024-03-08T11:50:19;41.60;;;17.27;;
11671;SDS011;5892;43.412;24.612;2024-03-08T11:52:46;46.88;;;18.45;;
11671;SDS011;5892;43.412;24.612;2024-03-08T11:55:11;40.38;;;17.73;;
11671;SDS011;5892;43.412;24.612;2024-03-08T11:57:38;40.80;;;16.88;;
11671;SDS011;5892;43.412;24.612;2024-03-08T12:00:03;55.00;;;17.48;;
11671;SDS011;5892;43.412;24.612;2024-03-08T12:02:35;43.05;;;17.58;;
11671;SDS011;5892;43.412;24.612;2024-03-08T12:05:02;49.97;;;18.70;;
11671;SDS011;5892;43.412;24.612;2024-03-08T12:07:31;46.60;;;19.13;;
11671;SDS011;5892;43.412;24.612;2024-03-08T12:10:15;48.80;;;19.42;;
11671;SDS011;5892;43.412;24.612;2024-03-08T12:12:46;51.95;;;18.98;;
11671;SDS011;5892;43.412;24.612;2024-03-08T12:15:14;51.95;;;19.08;;
11671;SDS011;5892;43.412;24.612;2024-03-08T12:17:43;54.17;;;19.83;;
11671;SDS011;5892;43.412;24.612;2024-03-08T12:20:18;47.47;;;19.48;;
11671;SDS011;5892;43.412;24.612;2024-03-08T12:22:51;46.47;;;18.42;;
11671;SDS011;5892;43.412;24.612;2024-03-08T12:25:23;44.20;;;19.23;;
11671;SDS011;5892;43.412;24.612;2024-03-08T12:27:51;55.15;;;20.05;;
11671;SDS011;5892;43.412;24.612;2024-03-08T12:30:22;49.42;;;18.40;;
11671;SDS011;5892;43.412;24.612;2024-03-08T12:33:00;52.67;;;18.95;;
11671;SDS011;5892;43.412;24.612;2024-03-08T12:35:29;47.08;;;18.48;;
11671;SDS011;5892;43.412;24.612;2024-03-08T12:37:57;52.00;;;19.73;;
11671;SDS011;5892;43.412;24.612;2024-03-08T12:40:28;49.80;;;19.95;;
11671;SDS011;5892;43.412;24.612;2024-03-08T12:42:56;49.78;;;20.05;;
11671;SDS011;5892;43.412;24.612;2024-03-08T12:45:23;52.20;;;18.80;;
11671;SDS011;5892;43.412;24.612;2024-03-08T12:47:55;53.88;;;19.85;;
11671;SDS011;5892;43.412;24.612;2024-03-08T12:50:21;44.70;;;18.27;;
11671;SDS011;5892;43.412;24.612;2024-03-08T12:52:47;49.58;;;21.52;;
11671;SDS011;5892;43.412;24.612;2024-03-08T12:55:14;42.88;;;19.25;;
11671;SDS011;5892;43.412;24.612;2024-03-08T12:57:41;50.35;;;21.25;;
11671;SDS011;5892;43.412;24.612;2024-03-08T13:00:07;52.38;;;18.90;;
11671;SDS011;5892;43.412;24.612;2024-03-08T13:02:38;48.38;;;18.70;;
11671;SDS011;5892;43.412;24.612;2024-03-08T13:05:04;47.85;;;20.55;;
11671;SDS011;5892;43.412;24.612;2024-03-08T13:07:31;49.92;;;19.65;;
11671;SDS011;5892;43.412;24.612;2024-03-08T13:09:56;49.88;;;17.10;;
11671;SDS011;5892;43.412;24.612;2024-03-08T13:12:24;48.20;;;19.20;;
11671;SDS011;5892;43.412;24.612;2024-03-08T13:14:50;42.50;;;17.98;;
11671;SDS011;5892;43.412;24.612;2024-03-08T13:17:16;51.60;;;18.85;;
11671;SDS011;5892;43.412;24.612;2024-03-08T13:19:43;52.33;;;22.23;;
11671;SDS011;5892;43.412;24.612;2024-03-08T13:22:09;46.95;;;19.77;;
11671;SDS011;5892;43.412;24.612;2024-03-08T13:24:39;45.45;;;18.48;;
11671;SDS011;5892;43.412;24.612;2024-03-08T13:27:08;47.78;;;18.67;;
11671;SDS011;5892;43.412;24.612;2024-03-08T13:30:00;48.67;;;20.90;;
11671;SDS011;5892;43.412;24.612;2024-03-08T13:32:26;46.45;;;19.77;;
11671;SDS011;5892;43.412;24.612;2024-03-08T13:34:52;55.55;;;22.55;;
11671;SDS011;5892;43.412;24.612;2024-03-08T13:37:19;48.80;;;20.33;;
11671;SDS011;5892;43.412;24.612;2024-03-08T13:39:46;50.28;;;20.35;;
11671;SDS011;5892;43.412;24.612;2024-03-08T13:42:15;62.70;;;22.08;;
11671;SDS011;5892;43.412;24.612;2024-03-08T13:44:47;43.63;;;16.50;;
11671;SDS011;5892;43.412;24.612;2024-03-08T13:47:17;53.17;;;20.08;;
11671;SDS011;5892;43.412;24.612;2024-03-08T13:49:43;52.30;;;19.52;;
11671;SDS011;5892;43.412;24.612;2024-03-08T13:52:10;46.50;;;21.27;;
11671;SDS011;5892;43.412;24.612;2024-03-08T13:54:38;51.90;;;18.10;;
11671;SDS011;5892;43.412;24.612;2024-03-08T13:57:04;44.97;;;16.58;;
11671;SDS011;5892;43.412;24.612;2024-03-08T13:59:33;49.72;;;19.10;;
11671;SDS011;5892;43.412;24.612;2024-03-08T14:02:00;55.08;;;23.10;;
11671;SDS011;5892;43.412;24.612;2024-03-08T14:04:29;45.78;;;18.20;;
11671;SDS011;5892;43.412;24.612;2024-03-08T14:06:55;48.00;;;20.08;;
11671;SDS011;5892;43.412;24.612;2024-03-08T14:09:28;52.28;;;21.63;;
11671;SDS011;5892;43.412;24.612;2024-03-08T14:11:54;47.15;;;19.42;;
11671;SDS011;5892;43.412;24.612;2024-03-08T14:14:21;39.08;;;18.33;;
11671;SDS011;5892;43.412;24.612;2024-03-08T14:16:50;47.95;;;19.13;;
11671;SDS011;5892;43.412;24.612;2024-03-08T14:19:20;50.38;;;20.15;;
11671;SDS011;5892;43.412;24.612;2024-03-08T14:21:49;47.33;;;20.02;;
11671;SDS011;5892;43.412;24.612;2024-03-08T14:24:16;47.13;;;20.17;;
11671;SDS011;5892;43.412;24.612;2024-03-08T14:26:42;44.53;;;18.58;;
11671;SDS011;5892;43.412;24.612;2024-03-08T14:29:08;51.75;;;19.73;;
11671;SDS011;5892;43.412;24.612;2024-03-08T14:31:37;53.90;;;20.10;;
11671;SDS011;5892;43.412;24.612;2024-03-08T14:34:03;46.50;;;21.90;;
11671;SDS011;5892;43.412;24.612;2024-03-08T14:36:32;53.72;;;20.63;;
11671;SDS011;5892;43.412;24.612;2024-03-08T14:39:00;50.30;;;21.17;;
11671;SDS011;5892;43.412;24.612;2024-03-08T14:41:25;48.13;;;20.33;;